Time;durP1;ratioP1;P1;durP2;ratioP2;P2;SDS_P1;SDS_P2;PMS_P1;PMS_P2;Temp;Humidity;BMP_temperature;BMP_pressure;BME280_temperature;BME280_humidity;BME280_pressure;Samples;Min_cycle;Max_cycle;Signal;HPM_P1;HPM_P2
2022/09/01 00:02:29;;;;;;;3.40;1.53;;;;;;;;;;5095920;28;20204;-82
2022/09/01 00:05:03;;;;;;;1.90;1.30;;;;;;;;;;5096611;28;20214;-82
2022/09/01 00:07:33;;;;;;;0.60;0.60;;;;;;;;;;5130608;27;20199;-83
2022/09/01 00:10:02;;;;;;;1.87;1.50;;;;;;;;;;5096561;28;20295;-83
2022/09/01 00:12:31;;;;;;;0.60;0.60;;;;;;;;;;5096587;28;20208;-82
2022/09/01 00:15:00;;;;;;;0.47;0.47;;;;;;;;;;5096421;28;20228;-82
2022/09/01 00:17:29;;;;;;;5.73;1.20;;;;;;;;;;5083190;28;20291;-82
2022/09/01 00:19:59;;;;;;;0.90;0.90;;;;;;;;;;5095847;28;20208;-82
2022/09/01 00:22:28;;;;;;;2.33;1.83;;;;;;;;;;5096340;28;20197;-82
2022/09/01 00:24:56;;;;;;;1.30;0.97;;;;;;;;;;5096067;28;20208;-82
2022/09/01 00:27:25;;;;;;;0.33;0.33;;;;;;;;;;5097146;28;20207;-82
2022/09/01 00:29:58;;;;;;;0.53;0.53;;;;;;;;;;5095987;28;20216;-82
2022/09/01 00:32:27;;;;;;;1.03;1.03;;;;;;;;;;5095663;28;20195;-82
2022/09/01 00:34:55;;;;;;;0.40;0.40;;;;;;;;;;5095901;28;20225;-82
2022/09/01 00:37:25;;;;;;;2.90;0.97;;;;;;;;;;5095901;28;20295;-82
2022/09/01 00:39:54;;;;;;;0.70;0.70;;;;;;;;;;5082400;28;20273;-82
2022/09/01 00:42:23;;;;;;;1.33;1.07;;;;;;;;;;5096071;28;20275;-83
2022/09/01 00:44:51;;;;;;;0.60;0.60;;;;;;;;;;5095269;28;20199;-84
2022/09/01 00:47:20;;;;;;;0.83;0.83;;;;;;;;;;5095550;28;20226;-83
2022/09/01 00:49:50;;;;;;;0.60;0.60;;;;;;;;;;5094684;28;20192;-83
2022/09/01 00:52:21;;;;;;;0.63;0.60;;;;;;;;;;5095107;28;20243;-83
2022/09/01 00:54:52;;;;;;;1.17;0.77;;;;;;;;;;5095342;28;20315;-83
2022/09/01 00:57:21;;;;;;;0.50;0.50;;;;;;;;;;5095236;28;20234;-83
2022/09/01 00:59:52;;;;;;;0.33;0.33;;;;;;;;;;5094065;28;20222;-83
2022/09/01 01:02:21;;;;;;;3.03;0.70;;;;;;;;;;5094999;28;20315;-83
2022/09/01 01:04:51;;;;;;;0.40;0.40;;;;;;;;;;5094422;28;20247;-83
2022/09/01 01:07:21;;;;;;;0.40;0.40;;;;;;;;;;5095528;28;20193;-83
2022/09/01 01:09:52;;;;;;;0.70;0.70;;;;;;;;;;5095600;28;20200;-83
2022/09/01 01:12:20;;;;;;;1.30;1.23;;;;;;;;;;5095133;28;20239;-83
2022/09/01 01:14:50;;;;;;;0.30;0.30;;;;;;;;;;5094879;28;20291;-83
2022/09/01 01:17:19;;;;;;;0.60;0.60;;;;;;;;;;5095738;28;20230;-83
2022/09/01 01:25:29;;;;;;;0.60;0.60;;;;;;;;;;5136136;27;20264;-83
2022/09/01 01:28:04;;;;;;;0.67;0.67;;;;;;;;;;5105073;28;20216;-83
2022/09/01 01:30:35;;;;;;;0.83;0.50;;;;;;;;;;5104320;28;20201;-83
2022/09/01 01:33:04;;;;;;;0.80;0.80;;;;;;;;;;5105755;28;20240;-83
2022/09/01 01:35:34;;;;;;;1.07;1.07;;;;;;;;;;5095053;28;20227;-83
2022/09/01 01:38:06;;;;;;;0.40;0.40;;;;;;;;;;5094428;28;20205;-83
2022/09/01 01:40:36;;;;;;;0.57;0.57;;;;;;;;;;5094255;28;20290;-83
2022/09/01 01:43:05;;;;;;;0.67;0.67;;;;;;;;;;5090792;28;20209;-83
2022/09/01 01:45:34;;;;;;;0.40;0.40;;;;;;;;;;5084676;28;20258;-83
2022/09/01 01:48:09;;;;;;;0.50;0.50;;;;;;;;;;5094306;28;20209;-83
2022/09/01 01:50:38;;;;;;;0.40;0.40;;;;;;;;;;5094542;28;20302;-83
2022/09/01 01:53:08;;;;;;;1.00;1.00;;;;;;;;;;5094343;28;20200;-83
2022/09/01 01:55:42;;;;;;;0.40;0.40;;;;;;;;;;5095106;28;20208;-83
2022/09/01 01:58:13;;;;;;;0.53;0.53;;;;;;;;;;5081372;28;20227;-83
2022/09/01 02:00:43;;;;;;;0.40;0.40;;;;;;;;;;5080114;28;20209;-83
2022/09/01 02:03:16;;;;;;;0.40;0.40;;;;;;;;;;5083412;28;20238;-83
2022/09/01 02:05:44;;;;;;;0.83;0.83;;;;;;;;;;5094096;28;20436;-83
2022/09/01 02:08:14;;;;;;;0.47;0.47;;;;;;;;;;5094143;28;20311;-81
2022/09/01 02:10:45;;;;;;;0.40;0.40;;;;;;;;;;5093709;28;20196;-83
2022/09/01 02:13:15;;;;;;;0.70;0.70;;;;;;;;;;5095290;28;20308;-83
2022/09/01 02:15:45;;;;;;;0.47;0.47;;;;;;;;;;5093938;28;20242;-82
2022/09/01 02:18:16;;;;;;;0.50;0.50;;;;;;;;;;5094140;28;20201;-82
2022/09/01 02:20:46;;;;;;;0.90;0.90;;;;;;;;;;5093501;28;20207;-82
2022/09/01 02:23:16;;;;;;;0.60;0.60;;;;;;;;;;5093607;28;20272;-83
2022/09/01 02:25:47;;;;;;;0.80;0.80;;;;;;;;;;5094574;28;20289;-82
2022/09/01 02:28:39;;;;;;;0.40;0.40;;;;;;;;;;5093352;28;20206;-83
2022/09/01 02:31:10;;;;;;;0.40;0.40;;;;;;;;;;5093787;28;20210;-83
2022/09/01 02:33:39;;;;;;;0.40;0.40;;;;;;;;;;5093454;28;20196;-82
2022/09/01 02:36:11;;;;;;;0.40;0.40;;;;;;;;;;5093673;28;20315;-82
2022/09/01 02:38:40;;;;;;;0.40;0.40;;;;;;;;;;5081419;28;20297;-82
2022/09/01 02:41:11;;;;;;;0.80;0.80;;;;;;;;;;5092950;28;20197;-82
2022/09/01 02:43:42;;;;;;;0.60;0.60;;;;;;;;;;5093869;28;20279;-83
2022/09/01 02:46:11;;;;;;;0.60;0.60;;;;;;;;;;5091192;28;20240;-82
2022/09/01 02:48:41;;;;;;;1.40;0.73;;;;;;;;;;5092727;28;20216;-82
2022/09/01 02:51:12;;;;;;;0.90;0.90;;;;;;;;;;5093248;28;20257;-82
2022/09/01 02:53:42;;;;;;;0.53;0.53;;;;;;;;;;5110480;28;20196;-82
2022/09/01 02:56:14;;;;;;;0.60;0.60;;;;;;;;;;5081396;28;20204;-82
2022/09/01 02:58:45;;;;;;;1.23;1.23;;;;;;;;;;5106491;28;20201;-82
2022/09/01 03:01:16;;;;;;;0.60;0.60;;;;;;;;;;5087144;28;20291;-82
2022/09/01 03:03:44;;;;;;;0.73;0.73;;;;;;;;;;5126972;28;20191;-82
2022/09/01 03:06:13;;;;;;;1.30;1.30;;;;;;;;;;5093355;28;20207;-82
2022/09/01 03:08:42;;;;;;;0.50;0.50;;;;;;;;;;5093298;28;20224;-83
2022/09/01 03:11:10;;;;;;;0.83;0.83;;;;;;;;;;5093036;28;20204;-82
2022/09/01 03:13:42;;;;;;;0.80;0.80;;;;;;;;;;5092448;28;20230;-82
2022/09/01 03:16:11;;;;;;;1.00;1.00;;;;;;;;;;5092824;28;20202;-82
2022/09/01 03:18:41;;;;;;;0.80;0.80;;;;;;;;;;5093159;28;20208;-82
2022/09/01 03:21:15;;;;;;;0.60;0.60;;;;;;;;;;5093552;28;20212;-82
2022/09/01 03:23:45;;;;;;;0.50;0.50;;;;;;;;;;5092709;28;20199;-82
2022/09/01 03:26:17;;;;;;;0.50;0.50;;;;;;;;;;5092633;28;20239;-82
2022/09/01 03:28:47;;;;;;;0.50;0.50;;;;;;;;;;5090320;28;20296;-82
2022/09/01 03:31:17;;;;;;;0.50;0.50;;;;;;;;;;5083420;28;20295;-82
2022/09/01 03:33:45;;;;;;;0.50;0.50;;;;;;;;;;5080567;28;20218;-83
2022/09/01 03:36:17;;;;;;;0.80;0.73;;;;;;;;;;5093760;28;20234;-82
2022/09/01 03:38:48;;;;;;;0.50;0.50;;;;;;;;;;5092946;28;20260;-83
2022/09/01 03:41:17;;;;;;;0.80;0.80;;;;;;;;;;5093100;28;20287;-83
2022/09/01 03:43:47;;;;;;;1.90;1.80;;;;;;;;;;5092874;28;20203;-83
2022/09/01 03:46:20;;;;;;;0.40;0.40;;;;;;;;;;5092664;28;20250;-82
2022/09/01 03:48:50;;;;;;;0.50;0.50;;;;;;;;;;5079958;28;20197;-83
2022/09/01 03:51:19;;;;;;;0.60;0.60;;;;;;;;;;5092354;28;20204;-83
2022/09/01 03:53:47;;;;;;;0.50;0.50;;;;;;;;;;5094769;28;20295;-82
2022/09/01 03:56:16;;;;;;;0.50;0.50;;;;;;;;;;5096323;28;20204;-82
2022/09/01 03:58:45;;;;;;;0.80;0.80;;;;;;;;;;5130618;27;20291;-82
2022/09/01 04:01:16;;;;;;;0.50;0.50;;;;;;;;;;5129906;27;20277;-82
2022/09/01 04:03:47;;;;;;;0.83;0.83;;;;;;;;;;5096840;28;20195;-82
2022/09/01 04:06:18;;;;;;;0.93;0.93;;;;;;;;;;5096665;28;20330;-82
2022/09/01 04:08:47;;;;;;;0.60;0.60;;;;;;;;;;5096623;28;20214;-82
2022/09/01 04:11:22;;;;;;;0.50;0.50;;;;;;;;;;5096384;28;20196;-82
2022/09/01 04:13:51;;;;;;;0.60;0.60;;;;;;;;;;5096422;28;20219;-83
2022/09/01 04:19:18;;;;;;;1.10;1.10;;;;;;;;;;5096020;28;20253;-83
2022/09/01 04:21:49;;;;;;;1.40;1.40;;;;;;;;;;5084989;28;20205;-82
2022/09/01 04:24:18;;;;;;;1.13;1.13;;;;;;;;;;5112848;27;20200;-83
2022/09/01 04:26:48;;;;;;;1.53;1.13;;;;;;;;;;5095898;28;20244;-83
2022/09/01 04:29:26;;;;;;;0.80;0.80;;;;;;;;;;5083841;28;20211;-82
2022/09/01 04:32:00;;;;;;;0.50;0.50;;;;;;;;;;5096298;28;20262;-82
2022/09/01 04:34:36;;;;;;;1.60;1.60;;;;;;;;;;5095848;28;20222;-82
2022/09/01 04:37:11;;;;;;;1.03;1.03;;;;;;;;;;5095781;28;20210;-82
2022/09/01 04:39:47;;;;;;;0.90;0.90;;;;;;;;;;5095808;28;20200;-83
2022/09/01 04:42:20;;;;;;;0.50;0.50;;;;;;;;;;5095884;28;20200;-83
2022/09/01 04:44:49;;;;;;;0.63;0.63;;;;;;;;;;5095281;28;20294;-82
2022/09/01 04:47:28;;;;;;;1.10;1.00;;;;;;;;;;5129590;27;20283;-83
2022/09/01 04:50:11;;;;;;;1.27;1.27;;;;;;;;;;5095429;28;20272;-83
2022/09/01 04:52:41;;;;;;;0.70;0.70;;;;;;;;;;5095654;28;20226;-83
2022/09/01 04:55:16;;;;;;;1.00;1.00;;;;;;;;;;5128954;27;20205;-83
2022/09/01 04:57:46;;;;;;;0.57;0.57;;;;;;;;;;5095259;28;20198;-82
2022/09/01 05:00:21;;;;;;;1.13;1.13;;;;;;;;;;5096304;28;20203;-82
2022/09/01 05:02:52;;;;;;;0.47;0.47;;;;;;;;;;5096092;28;20225;-82
2022/09/01 05:05:21;;;;;;;0.50;0.50;;;;;;;;;;5129740;27;20195;-82
2022/09/01 05:07:51;;;;;;;0.40;0.40;;;;;;;;;;5129186;27;20219;-82
2022/09/01 05:10:21;;;;;;;2.27;2.10;;;;;;;;;;5096657;28;20194;-83
2022/09/01 05:12:51;;;;;;;1.43;1.17;;;;;;;;;;5095745;28;20218;-83
2022/09/01 05:15:19;;;;;;;1.50;1.40;;;;;;;;;;5095605;28;20210;-83
2022/09/01 05:17:48;;;;;;;0.60;0.60;;;;;;;;;;5094911;28;20229;-83
2022/09/01 05:20:19;;;;;;;0.90;0.90;;;;;;;;;;5129143;27;20357;-83
2022/09/01 05:22:48;;;;;;;1.03;1.03;;;;;;;;;;5081651;28;20195;-83
2022/09/01 05:25:17;;;;;;;0.80;0.77;;;;;;;;;;5094520;28;20207;-83
2022/09/01 05:27:48;;;;;;;0.87;0.87;;;;;;;;;;5094908;28;20291;-83
2022/09/01 05:30:17;;;;;;;0.83;0.83;;;;;;;;;;5094745;28;20199;-83
2022/09/01 05:32:49;;;;;;;0.50;0.50;;;;;;;;;;5094330;28;20199;-83
2022/09/01 05:35:23;;;;;;;0.90;0.90;;;;;;;;;;5094536;28;20231;-81
2022/09/01 05:37:59;;;;;;;4.20;2.63;;;;;;;;;;5093575;28;20214;-83
2022/09/01 05:40:28;;;;;;;1.70;1.50;;;;;;;;;;5094247;28;20213;-84
2022/09/01 05:42:57;;;;;;;1.20;1.20;;;;;;;;;;5093558;28;20218;-83
2022/09/01 05:45:26;;;;;;;0.60;0.60;;;;;;;;;;5093047;28;20243;-83
2022/09/01 05:47:55;;;;;;;0.60;0.60;;;;;;;;;;5094711;28;20282;-83
2022/09/01 05:50:27;;;;;;;0.97;0.97;;;;;;;;;;5081612;28;20214;-83
2022/09/01 05:52:55;;;;;;;0.50;0.50;;;;;;;;;;5094271;28;20258;-83
2022/09/01 05:55:26;;;;;;;1.40;0.93;;;;;;;;;;5095155;28;20208;-83
2022/09/01 05:57:56;;;;;;;1.23;1.23;;;;;;;;;;5096437;28;20200;-83
2022/09/01 06:00:24;;;;;;;0.80;0.80;;;;;;;;;;5086519;28;20205;-83
2022/09/01 06:02:54;;;;;;;3.97;1.43;;;;;;;;;;5090361;28;20202;-83
2022/09/01 06:05:23;;;;;;;4.23;2.00;;;;;;;;;;5093319;28;20230;-83
2022/09/01 06:07:56;;;;;;;2.50;2.30;;;;;;;;;;5093216;28;20196;-83
2022/09/01 06:10:24;;;;;;;1.67;1.57;;;;;;;;;;5093528;28;20229;-84
2022/09/01 06:12:53;;;;;;;0.80;0.80;;;;;;;;;;5094674;28;20196;-83
2022/09/01 06:15:21;;;;;;;3.90;1.93;;;;;;;;;;5092820;28;20227;-83
2022/09/01 06:17:51;;;;;;;1.87;1.03;;;;;;;;;;5092236;28;20192;-82
2022/09/01 06:20:21;;;;;;;0.90;0.90;;;;;;;;;;5080162;28;20283;-82
2022/09/01 06:22:51;;;;;;;0.57;0.57;;;;;;;;;;5125846;27;20208;-82
2022/09/01 06:25:21;;;;;;;2.20;1.83;;;;;;;;;;5092711;28;20215;-82
2022/09/01 06:27:51;;;;;;;1.77;1.67;;;;;;;;;;5092609;28;20204;-81
2022/09/01 06:30:21;;;;;;;1.90;1.80;;;;;;;;;;5091846;28;20205;-82
2022/09/01 06:32:51;;;;;;;1.67;1.57;;;;;;;;;;5126975;27;20200;-82
2022/09/01 06:35:20;;;;;;;0.57;0.57;;;;;;;;;;5091951;28;20223;-82
2022/09/01 06:37:49;;;;;;;1.43;1.33;;;;;;;;;;5126619;27;20193;-82
2022/09/01 06:40:17;;;;;;;1.47;1.37;;;;;;;;;;5092536;28;20197;-82
2022/09/01 06:42:49;;;;;;;2.90;2.20;;;;;;;;;;5126259;27;20249;-81
2022/09/01 06:45:19;;;;;;;3.73;3.47;;;;;;;;;;5091897;28;20195;-81
2022/09/01 06:47:49;;;;;;;1.27;1.17;;;;;;;;;;5092637;28;20204;-82
2022/09/01 06:50:26;;;;;;;2.37;2.17;;;;;;;;;;5093274;28;20281;-81
2022/09/01 06:53:17;;;;;;;1.60;1.13;;;;;;;;;;5092731;28;20200;-81
2022/09/01 06:56:03;;;;;;;1.13;1.13;;;;;;;;;;5092000;28;20200;-81
2022/09/01 06:58:33;;;;;;;0.70;0.70;;;;;;;;;;5086839;28;20291;-81
2022/09/01 07:01:07;;;;;;;2.67;1.63;;;;;;;;;;5102826;28;20231;-81
2022/09/01 07:03:39;;;;;;;1.53;1.43;;;;;;;;;;5090925;28;20192;-81
2022/09/01 07:06:12;;;;;;;4.17;2.00;;;;;;;;;;5084522;28;20204;-84
2022/09/01 07:09:16;;;;;;;3.17;2.83;;;;;;;;;;5078656;28;20320;-81
2022/09/01 07:12:05;;;;;;;1.53;1.43;;;;;;;;;;5080194;28;20196;-81
2022/09/01 07:14:54;;;;;;;2.07;1.63;;;;;;;;;;5081225;28;20225;-81
2022/09/01 07:17:42;;;;;;;1.63;1.30;;;;;;;;;;5084429;28;20197;-81
2022/09/01 07:20:11;;;;;;;1.47;1.43;;;;;;;;;;5084693;28;20205;-83
2022/09/01 07:22:56;;;;;;;7.27;1.40;;;;;;;;;;5080590;28;20231;-82
2022/09/01 07:25:40;;;;;;;1.60;1.50;;;;;;;;;;5090792;28;20278;-82
2022/09/01 07:28:31;;;;;;;1.93;1.53;;;;;;;;;;5086739;28;20292;-83
2022/09/01 07:31:09;;;;;;;2.13;2.03;;;;;;;;;;5097655;28;20231;-82
2022/09/01 07:33:59;;;;;;;1.00;0.93;;;;;;;;;;5109813;28;20206;-82
2022/09/01 07:36:55;;;;;;;2.07;1.90;;;;;;;;;;5118423;27;20226;-82
2022/09/01 07:39:45;;;;;;;1.37;1.27;;;;;;;;;;5085453;28;20201;-82
2022/09/01 07:42:17;;;;;;;3.80;2.43;;;;;;;;;;5097043;27;20224;-82
2022/09/01 07:45:10;;;;;;;2.83;1.37;;;;;;;;;;5097797;27;20281;-83
2022/09/01 07:48:05;;;;;;;1.30;1.10;;;;;;;;;;5077884;28;20277;-82
2022/09/01 07:50:34;;;;;;;2.00;1.80;;;;;;;;;;5083639;28;20204;-82
2022/09/01 07:53:24;;;;;;;3.20;2.77;;;;;;;;;;5075869;28;20205;-82
2022/09/01 07:55:53;;;;;;;1.03;1.03;;;;;;;;;;5080730;28;20229;-82
2022/09/01 07:58:23;;;;;;;1.50;1.40;;;;;;;;;;5086941;28;20225;-82
2022/09/01 08:00:56;;;;;;;0.53;0.53;;;;;;;;;;5084173;28;20213;-82
2022/09/01 08:03:28;;;;;;;1.60;1.30;;;;;;;;;;5102110;27;20230;-82
2022/09/01 08:05:59;;;;;;;1.13;1.13;;;;;;;;;;5080392;28;20255;-83
2022/09/01 08:08:31;;;;;;;4.00;1.60;;;;;;;;;;5081862;28;20202;-82
2022/09/01 08:11:03;;;;;;;0.93;0.93;;;;;;;;;;5081662;28;20331;-83
2022/09/01 08:13:32;;;;;;;1.50;1.23;;;;;;;;;;5082476;28;20216;-83
2022/09/01 08:16:17;;;;;;;0.90;0.90;;;;;;;;;;5118689;27;20215;-83
2022/09/01 08:18:50;;;;;;;1.47;1.27;;;;;;;;;;5087464;28;20216;-83
2022/09/01 08:21:22;;;;;;;0.90;0.90;;;;;;;;;;5088552;28;20213;-83
2022/09/01 08:23:54;;;;;;;1.10;1.00;;;;;;;;;;5085317;28;20244;-83
2022/09/01 08:26:24;;;;;;;1.20;1.10;;;;;;;;;;5095627;28;20225;-83
2022/09/01 08:28:54;;;;;;;2.13;1.03;;;;;;;;;;5090946;28;20206;-83
2022/09/01 08:31:28;;;;;;;1.97;1.87;;;;;;;;;;5090118;28;20208;-83
2022/09/01 08:34:00;;;;;;;2.67;1.20;;;;;;;;;;5086091;28;20232;-83
2022/09/01 08:36:29;;;;;;;2.73;1.53;;;;;;;;;;5096925;27;20232;-83
2022/09/01 08:39:02;;;;;;;3.50;1.57;;;;;;;;;;5090189;28;20206;-83
2022/09/01 08:41:40;;;;;;;3.00;0.90;;;;;;;;;;5089344;28;20265;-83
2022/09/01 08:44:20;;;;;;;1.50;0.97;;;;;;;;;;5119981;27;20275;-83
2022/09/01 08:46:56;;;;;;;3.33;2.10;;;;;;;;;;5119108;27;20228;-83
2022/09/01 08:49:26;;;;;;;0.97;0.97;;;;;;;;;;5083992;28;20228;-83
2022/09/01 08:51:59;;;;;;;2.30;1.80;;;;;;;;;;5086172;28;20200;-83
2022/09/01 08:54:35;;;;;;;1.93;1.60;;;;;;;;;;5081318;28;20204;-83
2022/09/01 08:57:09;;;;;;;0.97;0.97;;;;;;;;;;5092460;27;20221;-83
2022/09/01 08:59:38;;;;;;;1.57;1.47;;;;;;;;;;5088310;28;20273;-83
2022/09/01 09:02:16;;;;;;;1.30;1.20;;;;;;;;;;5078354;28;20211;-83
2022/09/01 09:04:53;;;;;;;2.10;1.53;;;;;;;;;;5110171;27;20222;-80
2022/09/01 09:07:28;;;;;;;1.40;1.30;;;;;;;;;;5089467;27;20195;-80
2022/09/01 09:10:01;;;;;;;1.03;1.03;;;;;;;;;;5076232;28;20198;-81
2022/09/01 09:12:46;;;;;;;1.40;1.30;;;;;;;;;;5070424;28;20197;-79
2022/09/01 09:15:22;;;;;;;1.60;1.50;;;;;;;;;;5096385;27;20250;-83
2022/09/01 09:17:58;;;;;;;3.70;1.40;;;;;;;;;;5088376;28;20212;-83
2022/09/01 09:20:29;;;;;;;1.70;1.60;;;;;;;;;;5086063;28;20227;-84
2022/09/01 09:22:58;;;;;;;1.00;1.00;;;;;;;;;;5085253;28;20300;-83
2022/09/01 09:25:28;;;;;;;1.20;1.10;;;;;;;;;;5083375;28;20654;-83
2022/09/01 09:27:58;;;;;;;1.23;1.13;;;;;;;;;;5094068;27;20216;-83
2022/09/01 09:30:31;;;;;;;0.73;0.73;;;;;;;;;;5086057;28;20294;-83
2022/09/01 09:33:11;;;;;;;0.80;0.80;;;;;;;;;;5084252;28;20213;-84
2022/09/01 09:36:17;;;;;;;0.93;0.93;;;;;;;;;;5084414;28;20232;-83
2022/09/01 09:39:08;;;;;;;2.00;1.33;;;;;;;;;;5098684;27;20208;-84
2022/09/01 09:41:36;;;;;;;1.37;0.63;;;;;;;;;;5087721;28;20209;-84
2022/09/01 09:44:20;;;;;;;1.73;1.20;;;;;;;;;;5093688;27;20216;-83
2022/09/01 09:46:54;;;;;;;10.13;1.67;;;;;;;;;;5084360;28;20238;-83
2022/09/01 09:49:25;;;;;;;3.67;1.53;;;;;;;;;;5100277;28;20213;-84
2022/09/01 09:52:23;;;;;;;1.00;1.00;;;;;;;;;;5082045;28;20203;-84
2022/09/01 09:54:59;;;;;;;0.63;0.63;;;;;;;;;;5082399;28;20209;-82
2022/09/01 09:57:30;;;;;;;0.80;0.80;;;;;;;;;;5076528;28;20248;-82
2022/09/01 10:00:02;;;;;;;1.10;1.10;;;;;;;;;;5076835;28;20210;-83
2022/09/01 10:02:33;;;;;;;4.37;1.43;;;;;;;;;;5075942;28;20198;-83
2022/09/01 10:05:02;;;;;;;0.83;0.70;;;;;;;;;;5077584;28;20206;-82
2022/09/01 10:07:34;;;;;;;0.80;0.80;;;;;;;;;;5091277;27;20201;-82
2022/09/01 10:10:06;;;;;;;0.70;0.70;;;;;;;;;;5080686;28;20206;-82
2022/09/01 10:12:35;;;;;;;14.73;1.47;;;;;;;;;;5091596;28;20202;-83
2022/09/01 10:15:07;;;;;;;1.50;1.00;;;;;;;;;;5091276;28;20242;-83
2022/09/01 10:17:42;;;;;;;1.80;1.70;;;;;;;;;;5094352;28;20193;-83
2022/09/01 10:20:13;;;;;;;4.20;1.57;;;;;;;;;;5093020;28;20261;-83
2022/09/01 10:22:45;;;;;;;1.70;1.17;;;;;;;;;;5085876;28;20233;-83
2022/09/01 10:25:18;;;;;;;1.37;1.27;;;;;;;;;;5087871;28;20195;-83
2022/09/01 10:27:51;;;;;;;2.80;1.37;;;;;;;;;;5083025;28;20258;-83
2022/09/01 10:30:22;;;;;;;3.30;1.53;;;;;;;;;;5118402;27;20242;-84
2022/09/01 10:32:52;;;;;;;1.20;1.10;;;;;;;;;;5088467;28;20291;-83
2022/09/01 10:35:25;;;;;;;1.17;1.07;;;;;;;;;;5120812;27;20239;-82
2022/09/01 10:38:06;;;;;;;1.53;1.43;;;;;;;;;;5119334;27;20216;-82
2022/09/01 10:40:44;;;;;;;1.20;0.97;;;;;;;;;;5094663;28;20200;-82
2022/09/01 10:43:26;;;;;;;1.47;0.80;;;;;;;;;;5081713;28;20223;-83
2022/09/01 10:45:55;;;;;;;0.93;0.90;;;;;;;;;;5086629;28;20241;-82
2022/09/01 10:48:37;;;;;;;1.33;1.03;;;;;;;;;;5088482;28;20213;-83
2022/09/01 10:51:42;;;;;;;1.87;1.30;;;;;;;;;;5086443;28;20211;-83
2022/09/01 10:54:50;;;;;;;1.93;0.90;;;;;;;;;;5088686;28;20207;-83
2022/09/01 10:57:30;;;;;;;1.20;1.10;;;;;;;;;;5095806;28;20307;-83
2022/09/01 11:00:36;;;;;;;0.97;0.97;;;;;;;;;;5085576;28;20221;-83
2022/09/01 11:03:28;;;;;;;1.50;1.27;;;;;;;;;;5088038;28;20198;-84
2022/09/01 11:06:00;;;;;;;1.27;1.13;;;;;;;;;;5090359;28;20207;-84
2022/09/01 11:08:43;;;;;;;4.77;1.80;;;;;;;;;;5091791;28;20204;-84
2022/09/01 11:11:26;;;;;;;1.47;1.37;;;;;;;;;;5125009;27;20239;-83
2022/09/01 11:13:58;;;;;;;1.47;1.37;;;;;;;;;;5119194;27;20216;-83
2022/09/01 11:16:32;;;;;;;1.23;1.10;;;;;;;;;;5088223;28;20255;-84
2022/09/01 11:19:24;;;;;;;1.40;1.30;;;;;;;;;;5095749;28;20256;-85
2022/09/01 11:22:04;;;;;;;2.13;1.07;;;;;;;;;;5124405;27;20211;-84
2022/09/01 11:24:52;;;;;;;3.57;1.57;;;;;;;;;;5123037;27;20248;-84
2022/09/01 11:27:48;;;;;;;0.70;0.70;;;;;;;;;;5086306;28;20201;-85
2022/09/01 11:30:22;;;;;;;3.90;1.90;;;;;;;;;;5092279;28;20194;-85
2022/09/01 11:32:53;;;;;;;3.27;0.90;;;;;;;;;;5124575;27;20193;-87
2022/09/01 11:35:23;;;;;;;3.50;0.93;;;;;;;;;;5083255;28;20245;-83
2022/09/01 11:37:53;;;;;;;1.07;1.07;;;;;;;;;;5088804;28;20240;-84
2022/09/01 11:40:23;;;;;;;0.90;0.90;;;;;;;;;;5119817;27;20219;-84
2022/09/01 11:42:58;;;;;;;0.40;0.40;;;;;;;;;;5097844;28;20194;-84
2022/09/01 11:45:33;;;;;;;2.93;1.40;;;;;;;;;;5085794;28;20203;-84
2022/09/01 11:48:10;;;;;;;2.10;1.10;;;;;;;;;;5099456;28;20200;-83
2022/09/01 11:50:39;;;;;;;1.57;1.10;;;;;;;;;;5093119;28;20201;-83
2022/09/01 11:53:09;;;;;;;1.27;0.90;;;;;;;;;;5087480;28;20213;-83
2022/09/01 11:55:39;;;;;;;1.47;0.97;;;;;;;;;;5087937;28;20204;-85
2022/09/01 11:58:11;;;;;;;1.57;0.90;;;;;;;;;;5087031;28;20306;-84
2022/09/01 12:00:46;;;;;;;1.87;1.07;;;;;;;;;;5085489;28;20291;-83
2022/09/01 12:03:22;;;;;;;1.27;1.00;;;;;;;;;;5089199;28;20218;-84
2022/09/01 12:05:58;;;;;;;1.60;1.50;;;;;;;;;;5083736;28;20210;-83
2022/09/01 12:08:29;;;;;;;0.97;0.90;;;;;;;;;;5082635;28;20193;-84
2022/09/01 12:11:04;;;;;;;5.27;1.20;;;;;;;;;;5086843;28;20219;-83
2022/09/01 12:13:33;;;;;;;0.60;0.60;;;;;;;;;;5089209;28;20208;-84
2022/09/01 12:16:05;;;;;;;0.93;0.80;;;;;;;;;;5089696;28;20214;-84
2022/09/01 12:18:52;;;;;;;2.53;0.90;;;;;;;;;;5087913;28;20198;-84
2022/09/01 12:21:22;;;;;;;0.70;0.70;;;;;;;;;;5089905;28;20200;-83
2022/09/01 12:23:50;;;;;;;3.17;0.90;;;;;;;;;;5085761;28;20212;-85
2022/09/01 12:26:23;;;;;;;0.80;0.80;;;;;;;;;;5086696;28;20208;-84
2022/09/01 12:28:55;;;;;;;1.67;0.93;;;;;;;;;;5083400;28;20205;-84
2022/09/01 12:31:29;;;;;;;0.67;0.67;;;;;;;;;;5089405;28;20289;-83
2022/09/01 12:33:57;;;;;;;0.70;0.70;;;;;;;;;;5089208;28;20213;-83
2022/09/01 12:36:30;;;;;;;1.77;0.70;;;;;;;;;;5089089;28;20217;-83
2022/09/01 12:39:19;;;;;;;1.80;0.80;;;;;;;;;;5086190;28;20197;-84
2022/09/01 12:42:01;;;;;;;0.77;0.77;;;;;;;;;;5089804;28;20201;-84
2022/09/01 12:44:30;;;;;;;1.13;0.87;;;;;;;;;;5095959;28;20214;-84
2022/09/01 12:47:05;;;;;;;1.07;1.00;;;;;;;;;;5099209;28;20240;-83
2022/09/01 12:49:39;;;;;;;0.93;0.60;;;;;;;;;;5094549;28;20201;-84
2022/09/01 12:52:24;;;;;;;0.47;0.47;;;;;;;;;;5088897;28;20194;-83
2022/09/01 12:54:54;;;;;;;4.00;0.70;;;;;;;;;;5113484;28;20197;-83
2022/09/01 12:57:27;;;;;;;1.23;1.03;;;;;;;;;;5097107;28;20250;-82
2022/09/01 13:00:07;;;;;;;0.93;0.70;;;;;;;;;;5090955;28;20207;-83
2022/09/01 13:02:38;;;;;;;1.27;1.10;;;;;;;;;;5123853;27;20213;-83
2022/09/01 13:05:20;;;;;;;0.90;0.90;;;;;;;;;;5086163;28;20300;-83
2022/09/01 13:07:55;;;;;;;0.60;0.60;;;;;;;;;;5088268;28;20236;-82
2022/09/01 13:10:26;;;;;;;1.10;1.00;;;;;;;;;;5091284;28;20198;-82
2022/09/01 13:12:56;;;;;;;3.10;0.90;;;;;;;;;;5089264;28;20213;-82
2022/09/01 13:15:25;;;;;;;0.80;0.80;;;;;;;;;;5090596;28;20266;-82
2022/09/01 13:17:55;;;;;;;3.80;1.33;;;;;;;;;;5122033;27;20293;-83
2022/09/01 13:20:24;;;;;;;1.27;1.10;;;;;;;;;;5088846;28;20213;-82
2022/09/01 13:22:53;;;;;;;1.73;0.93;;;;;;;;;;5090043;28;20276;-82
2022/09/01 13:25:22;;;;;;;1.00;0.90;;;;;;;;;;5089334;28;20249;-82
2022/09/01 13:27:53;;;;;;;1.13;1.03;;;;;;;;;;5087177;28;20198;-82
2022/09/01 13:30:27;;;;;;;4.30;1.10;;;;;;;;;;5095879;28;20213;-82
2022/09/01 13:32:58;;;;;;;0.80;0.80;;;;;;;;;;5101096;28;20332;-82
2022/09/01 13:35:46;;;;;;;1.07;0.90;;;;;;;;;;5124025;27;20316;-81
2022/09/01 13:38:15;;;;;;;2.03;0.90;;;;;;;;;;5092236;28;20218;-83
2022/09/01 13:40:45;;;;;;;2.70;1.17;;;;;;;;;;5084860;28;20225;-83
2022/09/01 13:43:14;;;;;;;0.90;0.90;;;;;;;;;;5087346;28;20380;-83
2022/09/01 13:45:43;;;;;;;2.97;1.03;;;;;;;;;;5086879;28;20251;-84
2022/09/01 13:48:14;;;;;;;0.90;0.90;;;;;;;;;;5103041;28;20232;-83
2022/09/01 13:50:49;;;;;;;1.47;0.70;;;;;;;;;;5103378;27;20215;-81
2022/09/01 13:53:37;;;;;;;1.13;1.03;;;;;;;;;;5122196;27;20212;-81
2022/09/01 13:56:06;;;;;;;1.93;0.80;;;;;;;;;;5086724;28;20232;-81
2022/09/01 13:58:37;;;;;;;0.90;0.90;;;;;;;;;;5086557;28;20218;-81
2022/09/01 14:01:06;;;;;;;0.87;0.87;;;;;;;;;;5088126;28;20208;-81
2022/09/01 14:03:37;;;;;;;0.80;0.80;;;;;;;;;;5103489;28;20251;-81
2022/09/01 14:06:07;;;;;;;0.97;0.97;;;;;;;;;;5120656;27;20203;-82
2022/09/01 14:08:35;;;;;;;0.50;0.50;;;;;;;;;;5089095;28;20213;-81
2022/09/01 14:11:07;;;;;;;0.80;0.80;;;;;;;;;;5086412;28;20198;-82
2022/09/01 14:13:36;;;;;;;0.80;0.80;;;;;;;;;;5088335;28;20217;-81
2022/09/01 14:16:10;;;;;;;0.97;0.90;;;;;;;;;;5087045;28;20210;-81
2022/09/01 14:18:41;;;;;;;1.17;0.93;;;;;;;;;;5087415;28;20215;-81
2022/09/01 14:21:11;;;;;;;1.23;0.93;;;;;;;;;;5087581;28;20225;-82
2022/09/01 14:23:39;;;;;;;2.63;1.40;;;;;;;;;;5082292;28;20205;-81
2022/09/01 14:26:10;;;;;;;2.47;0.93;;;;;;;;;;5088463;28;20227;-81
2022/09/01 14:28:39;;;;;;;0.87;0.87;;;;;;;;;;5086095;28;20218;-81
2022/09/01 14:31:09;;;;;;;0.67;0.60;;;;;;;;;;5086476;28;20201;-82
2022/09/01 14:33:38;;;;;;;0.73;0.73;;;;;;;;;;5085274;28;20204;-82
2022/09/01 14:36:08;;;;;;;1.23;1.00;;;;;;;;;;5084964;28;20366;-82
2022/09/01 14:38:42;;;;;;;1.27;1.03;;;;;;;;;;5085151;28;20228;-82
2022/09/01 14:41:14;;;;;;;0.80;0.80;;;;;;;;;;5088157;28;20204;-83
2022/09/01 14:43:42;;;;;;;0.60;0.60;;;;;;;;;;5086557;28;20202;-82
2022/09/01 14:46:11;;;;;;;1.27;1.00;;;;;;;;;;5119838;27;20217;-82
2022/09/01 14:49:04;;;;;;;0.70;0.70;;;;;;;;;;5072840;27;20552;-81
2022/09/01 14:51:33;;;;;;;0.60;0.60;;;;;;;;;;5069295;28;20203;-82
2022/09/01 14:54:24;;;;;;;1.00;1.00;;;;;;;;;;5068636;28;20195;-82
2022/09/01 14:56:53;;;;;;;0.90;0.90;;;;;;;;;;5067243;28;20221;-82
2022/09/01 14:59:42;;;;;;;0.60;0.60;;;;;;;;;;5065601;28;20195;-81
2022/09/01 15:02:10;;;;;;;0.80;0.80;;;;;;;;;;5061005;28;20238;-81
2022/09/01 15:04:41;;;;;;;4.23;0.93;;;;;;;;;;5079637;28;20199;-81
2022/09/01 15:07:09;;;;;;;1.87;0.90;;;;;;;;;;5063640;28;20226;-81
2022/09/01 15:09:37;;;;;;;1.33;0.97;;;;;;;;;;5093449;28;20315;-82
2022/09/01 15:12:08;;;;;;;0.90;0.90;;;;;;;;;;5061095;28;20192;-80
2022/09/01 15:14:37;;;;;;;0.80;0.80;;;;;;;;;;5060355;28;20207;-81
2022/09/01 15:17:06;;;;;;;0.70;0.70;;;;;;;;;;5058791;28;20205;-80
2022/09/01 15:19:35;;;;;;;1.47;0.90;;;;;;;;;;5095763;28;20213;-80
2022/09/01 15:22:05;;;;;;;1.60;0.90;;;;;;;;;;5091503;28;20191;-80
2022/09/01 15:24:34;;;;;;;1.43;0.90;;;;;;;;;;5060663;28;20201;-80
2022/09/01 15:27:02;;;;;;;0.80;0.80;;;;;;;;;;5057081;28;20314;-80
2022/09/01 15:29:32;;;;;;;1.30;1.20;;;;;;;;;;5059937;28;20233;-80